sensor_id;sensor_type;location;lat;lon;timestamp;pressure;altitude;pressure_sealevel;temperature;humidity
12951;BME280;6540;50.858;7.232;2023-02-28T00:01:14;51949.34;;;-142.34;27.99
12951;BME280;6540;50.858;7.232;2023-02-28T00:03:40;51902.97;;;-142.34;27.54
12951;BME280;6540;50.858;7.232;2023-02-28T00:06:07;51923.13;;;-142.34;27.31
12951;BME280;6540;50.858;7.232;2023-02-28T00:08:32;51931.19;;;-142.34;27.05
12951;BME280;6540;50.858;7.232;2023-02-28T00:11:03;51911.03;;;-142.34;27.38
12951;BME280;6540;50.858;7.232;2023-02-28T00:13:28;51943.31;;;-142.34;28.03
12951;BME280;6540;50.858;7.232;2023-02-28T00:16:08;51902.97;;;-142.34;27.99
12951;BME280;6540;50.858;7.232;2023-02-28T00:18:34;51947.34;;;-142.34;27.95
12951;BME280;6540;50.858;7.232;2023-02-28T00:21:00;51919.09;;;-142.34;28.04
12951;BME280;6540;50.858;7.232;2023-02-28T00:23:26;51959.44;;;-142.34;27.71
12951;BME280;6540;50.858;7.232;2023-02-28T00:25:51;51931.19;;;-142.34;27.12
12951;BME280;6540;50.858;7.232;2023-02-28T00:28:17;51913.03;;;-142.34;27.17
12951;BME280;6540;50.858;7.232;2023-02-28T00:30:43;51941.28;;;-142.34;27.68
12951;BME280;6540;50.858;7.232;2023-02-28T00:33:08;51947.34;;;-142.34;27.24
12951;BME280;6540;50.858;7.232;2023-02-28T00:35:33;51947.34;;;-142.34;27.91
12951;BME280;6540;50.858;7.232;2023-02-28T00:37:59;51953.41;;;-142.34;27.70
12951;BME280;6540;50.858;7.232;2023-02-28T00:40:24;51929.19;;;-142.34;27.90
12951;BME280;6540;50.858;7.232;2023-02-28T00:42:49;51902.97;;;-142.34;28.05
12951;BME280;6540;50.858;7.232;2023-02-28T00:45:15;51919.09;;;-142.34;27.71
12951;BME280;6540;50.858;7.232;2023-02-28T00:47:40;51947.34;;;-142.34;27.66
12951;BME280;6540;50.858;7.232;2023-02-28T00:50:06;51894.88;;;-142.34;26.90
12951;BME280;6540;50.858;7.232;2023-02-28T00:52:31;51953.41;;;-142.34;26.75
12951;BME280;6540;50.858;7.232;2023-02-28T00:54:57;51923.13;;;-142.34;27.39
12951;BME280;6540;50.858;7.232;2023-02-28T00:57:22;51913.03;;;-142.34;27.70
12951;BME280;6540;50.858;7.232;2023-02-28T00:59:48;51951.38;;;-142.34;27.49
12951;BME280;6540;50.858;7.232;2023-02-28T01:02:13;51915.06;;;-142.34;27.46
12951;BME280;6540;50.858;7.232;2023-02-28T01:04:39;51947.34;;;-142.34;28.85
12951;BME280;6540;50.858;7.232;2023-02-28T01:07:04;51925.16;;;-142.34;27.67
12951;BME280;6540;50.858;7.232;2023-02-28T01:09:30;51931.19;;;-142.34;27.39
12951;BME280;6540;50.858;7.232;2023-02-28T01:11:55;51947.34;;;-142.34;27.90
12951;BME280;6540;50.858;7.232;2023-02-28T01:14:21;51941.28;;;-142.34;28.05
12951;BME280;6540;50.858;7.232;2023-02-28T01:16:46;51959.44;;;-142.34;26.65
12951;BME280;6540;50.858;7.232;2023-02-28T01:19:12;51963.47;;;-142.34;26.54
12951;BME280;6540;50.858;7.232;2023-02-28T01:21:37;51943.31;;;-142.34;27.08
12951;BME280;6540;50.858;7.232;2023-02-28T01:24:03;51931.19;;;-142.34;26.59
12951;BME280;6540;50.858;7.232;2023-02-28T01:26:29;51955.41;;;-142.34;26.58
12951;BME280;6540;50.858;7.232;2023-02-28T01:28:55;51943.31;;;-142.34;26.09
12951;BME280;6540;50.858;7.232;2023-02-28T01:31:22;51929.19;;;-142.34;25.97
12951;BME280;6540;50.858;7.232;2023-02-28T01:33:47;51995.75;;;-142.34;26.63
12951;BME280;6540;50.858;7.232;2023-02-28T01:36:22;51947.34;;;-142.34;26.38
12951;BME280;6540;50.858;7.232;2023-02-28T01:38:49;51917.06;;;-142.34;26.88
12951;BME280;6540;50.858;7.232;2023-02-28T01:41:20;51904.97;;;-142.34;27.01
12951;BME280;6540;50.858;7.232;2023-02-28T01:46:12;51971.53;;;-142.34;26.40
12951;BME280;6540;50.858;7.232;2023-02-28T01:48:43;51915.06;;;-142.34;26.07
12951;BME280;6540;50.858;7.232;2023-02-28T01:51:15;51939.28;;;-142.34;26.04
12951;BME280;6540;50.858;7.232;2023-02-28T01:53:46;51947.34;;;-142.34;26.07
12951;BME280;6540;50.858;7.232;2023-02-28T01:56:14;51955.41;;;-142.34;26.15
12951;BME280;6540;50.858;7.232;2023-02-28T01:58:47;51937.25;;;-142.34;26.29
12951;BME280;6540;50.858;7.232;2023-02-28T02:01:12;51959.44;;;-142.34;26.60
12951;BME280;6540;50.858;7.232;2023-02-28T02:03:47;51959.44;;;-142.34;27.23
12951;BME280;6540;50.858;7.232;2023-02-28T02:06:13;51937.25;;;-142.34;26.95
12951;BME280;6540;50.858;7.232;2023-02-28T02:08:38;51923.13;;;-142.34;26.19
12951;BME280;6540;50.858;7.232;2023-02-28T02:11:05;51929.19;;;-142.34;26.19
12951;BME280;6540;50.858;7.232;2023-02-28T02:18:54;51939.28;;;-142.34;26.51
12951;BME280;6540;50.858;7.232;2023-02-28T02:35:34;51935.25;;;-142.34;27.34
12951;BME280;6540;50.858;7.232;2023-02-28T02:38:12;51886.81;;;-142.34;27.95
12951;BME280;6540;50.858;7.232;2023-02-28T02:40:54;51919.09;;;-142.34;27.63
12951;BME280;6540;50.858;7.232;2023-02-28T02:43:33;51943.31;;;-142.34;27.00
12951;BME280;6540;50.858;7.232;2023-02-28T02:46:12;51927.16;;;-142.34;27.03
12951;BME280;6540;50.858;7.232;2023-02-28T02:48:42;51921.13;;;-142.34;26.60
12951;BME280;6540;50.858;7.232;2023-02-28T02:51:15;51947.34;;;-142.34;26.95
12951;BME280;6540;50.858;7.232;2023-02-28T02:53:46;51921.13;;;-142.34;27.43
12951;BME280;6540;50.858;7.232;2023-02-28T02:56:15;51923.13;;;-142.34;27.44
12951;BME280;6540;50.858;7.232;2023-02-28T02:58:42;51904.97;;;-142.34;28.04
12951;BME280;6540;50.858;7.232;2023-02-28T03:01:16;51931.19;;;-142.34;27.74
12951;BME280;6540;50.858;7.232;2023-02-28T03:03:50;51919.09;;;-142.34;28.00
12951;BME280;6540;50.858;7.232;2023-02-28T03:06:15;51923.13;;;-142.34;27.90
12951;BME280;6540;50.858;7.232;2023-02-28T03:08:40;51937.25;;;-142.34;28.10
12951;BME280;6540;50.858;7.232;2023-02-28T03:11:12;51898.94;;;-142.34;28.14
12951;BME280;6540;50.858;7.232;2023-02-28T03:24:11;51894.88;;;-142.34;28.04
12951;BME280;6540;50.858;7.232;2023-02-28T03:26:45;51894.88;;;-142.34;28.10
12951;BME280;6540;50.858;7.232;2023-02-28T03:29:22;51945.31;;;-142.34;28.34
12951;BME280;6540;50.858;7.232;2023-02-28T03:31:54;51880.78;;;-142.34;28.39
12951;BME280;6540;50.858;7.232;2023-02-28T03:34:29;51915.06;;;-142.34;28.99
12951;BME280;6540;50.858;7.232;2023-02-28T03:37:05;51931.19;;;-142.34;28.21
12951;BME280;6540;50.858;7.232;2023-02-28T03:39:49;51923.13;;;-142.34;28.93
12951;BME280;6540;50.858;7.232;2023-02-28T03:42:20;51943.31;;;-142.34;29.62
12951;BME280;6540;50.858;7.232;2023-02-28T03:44:59;51927.16;;;-142.34;29.36
12951;BME280;6540;50.858;7.232;2023-02-28T03:47:33;51884.81;;;-142.34;28.97
12951;BME280;6540;50.858;7.232;2023-02-28T03:50:06;51917.06;;;-142.34;28.41
12951;BME280;6540;50.858;7.232;2023-02-28T03:52:35;51921.13;;;-142.34;28.10
12951;BME280;6540;50.858;7.232;2023-02-28T03:55:07;51925.16;;;-142.34;28.25
12951;BME280;6540;50.858;7.232;2023-02-28T03:57:40;51919.09;;;-142.34;27.61
12951;BME280;6540;50.858;7.232;2023-02-28T04:00:28;51886.81;;;-142.34;27.49
12951;BME280;6540;50.858;7.232;2023-02-28T04:02:53;51939.28;;;-142.34;26.87
12951;BME280;6540;50.858;7.232;2023-02-28T04:05:19;51902.97;;;-142.34;26.76
12951;BME280;6540;50.858;7.232;2023-02-28T04:07:45;51975.59;;;-142.34;27.53
12951;BME280;6540;50.858;7.232;2023-02-28T04:10:12;51915.06;;;-142.34;27.71
12951;BME280;6540;50.858;7.232;2023-02-28T04:12:38;51975.59;;;-142.34;27.48
12951;BME280;6540;50.858;7.232;2023-02-28T04:15:04;51923.13;;;-142.34;27.59
12951;BME280;6540;50.858;7.232;2023-02-28T04:17:29;51975.59;;;-142.34;27.87
12951;BME280;6540;50.858;7.232;2023-02-28T04:19:55;51959.44;;;-142.34;28.10
12951;BME280;6540;50.858;7.232;2023-02-28T04:22:22;51927.16;;;-142.34;28.06
12951;BME280;6540;50.858;7.232;2023-02-28T04:24:47;51890.84;;;-142.34;27.85
12951;BME280;6540;50.858;7.232;2023-02-28T04:27:13;51971.53;;;-142.34;28.10
12951;BME280;6540;50.858;7.232;2023-02-28T04:29:40;51886.81;;;-142.34;28.10
12951;BME280;6540;50.858;7.232;2023-02-28T04:32:10;51915.06;;;-142.34;28.63
12951;BME280;6540;50.858;7.232;2023-02-28T04:34:35;51894.88;;;-142.34;27.78
12951;BME280;6540;50.858;7.232;2023-02-28T04:37:01;51953.41;;;-142.34;26.81
12951;BME280;6540;50.858;7.232;2023-02-28T04:39:28;51907.00;;;-142.34;26.51
12951;BME280;6540;50.858;7.232;2023-02-28T04:41:55;51943.31;;;-142.34;27.54
12951;BME280;6540;50.858;7.232;2023-02-28T04:44:20;51955.41;;;-142.34;27.53
12951;BME280;6540;50.858;7.232;2023-02-28T04:46:47;51927.16;;;-142.34;26.93
12951;BME280;6540;50.858;7.232;2023-02-28T04:49:13;51939.28;;;-142.34;27.02
12951;BME280;6540;50.858;7.232;2023-02-28T04:51:38;51925.16;;;-142.34;26.91
12951;BME280;6540;50.858;7.232;2023-02-28T04:54:04;51913.03;;;-142.34;26.39
12951;BME280;6540;50.858;7.232;2023-02-28T04:56:29;51959.44;;;-142.34;26.68
12951;BME280;6540;50.858;7.232;2023-02-28T04:58:54;51967.50;;;-142.34;26.49
12951;BME280;6540;50.858;7.232;2023-02-28T05:01:23;51886.81;;;-142.34;26.51
12951;BME280;6540;50.858;7.232;2023-02-28T05:03:50;51971.53;;;-142.34;26.68
12951;BME280;6540;50.858;7.232;2023-02-28T05:06:15;51935.25;;;-142.34;26.92
12951;BME280;6540;50.858;7.232;2023-02-28T05:08:41;51927.16;;;-142.34;26.29
12951;BME280;6540;50.858;7.232;2023-02-28T05:11:13;51931.19;;;-142.34;26.18
12951;BME280;6540;50.858;7.232;2023-02-28T05:13:39;51961.47;;;-142.34;27.13
12951;BME280;6540;50.858;7.232;2023-02-28T05:16:04;51961.47;;;-142.34;27.65
12951;BME280;6540;50.858;7.232;2023-02-28T05:18:30;51941.28;;;-142.34;27.01
12951;BME280;6540;50.858;7.232;2023-02-28T05:20:55;51943.31;;;-142.34;26.92
12951;BME280;6540;50.858;7.232;2023-02-28T05:23:22;51894.88;;;-142.34;27.63
12951;BME280;6540;50.858;7.232;2023-02-28T05:25:48;51947.34;;;-142.34;27.59
12951;BME280;6540;50.858;7.232;2023-02-28T05:28:13;51947.34;;;-142.34;26.96
12951;BME280;6540;50.858;7.232;2023-02-28T05:30:39;51923.13;;;-142.34;27.24
12951;BME280;6540;50.858;7.232;2023-02-28T05:33:04;51939.28;;;-142.34;26.93
12951;BME280;6540;50.858;7.232;2023-02-28T05:35:30;51957.44;;;-142.34;26.40
12951;BME280;6540;50.858;7.232;2023-02-28T05:37:55;51959.44;;;-142.34;26.58
12951;BME280;6540;50.858;7.232;2023-02-28T05:40:20;51931.19;;;-142.34;26.68
12951;BME280;6540;50.858;7.232;2023-02-28T05:42:46;51945.31;;;-142.34;26.39
12951;BME280;6540;50.858;7.232;2023-02-28T05:45:12;51904.97;;;-142.34;26.19
12951;BME280;6540;50.858;7.232;2023-02-28T05:47:37;51951.38;;;-142.34;26.00
12951;BME280;6540;50.858;7.232;2023-02-28T05:50:03;51963.47;;;-142.34;26.21
12951;BME280;6540;50.858;7.232;2023-02-28T05:52:29;51919.09;;;-142.34;26.58
12951;BME280;6540;50.858;7.232;2023-02-28T05:54:57;51939.28;;;-142.34;27.49
12951;BME280;6540;50.858;7.232;2023-02-28T05:57:22;51935.25;;;-142.34;27.04
12951;BME280;6540;50.858;7.232;2023-02-28T05:59:48;51927.16;;;-142.34;26.50
12951;BME280;6540;50.858;7.232;2023-02-28T06:02:15;51947.34;;;-142.34;26.59
12951;BME280;6540;50.858;7.232;2023-02-28T06:04:42;51931.19;;;-142.34;27.05
12951;BME280;6540;50.858;7.232;2023-02-28T06:07:08;51923.13;;;-142.34;26.75
12951;BME280;6540;50.858;7.232;2023-02-28T06:09:34;51913.03;;;-142.34;26.56
12951;BME280;6540;50.858;7.232;2023-02-28T06:12:01;51939.28;;;-142.34;27.44
12951;BME280;6540;50.858;7.232;2023-02-28T06:14:29;51939.28;;;-142.34;27.05
12951;BME280;6540;50.858;7.232;2023-02-28T06:16:56;51941.28;;;-142.34;26.34
12951;BME280;6540;50.858;7.232;2023-02-28T06:19:22;51935.25;;;-142.34;26.34
12951;BME280;6540;50.858;7.232;2023-02-28T06:21:51;51931.19;;;-142.34;25.97
12951;BME280;6540;50.858;7.232;2023-02-28T06:24:18;51977.59;;;-142.34;26.12
12951;BME280;6540;50.858;7.232;2023-02-28T06:26:44;51953.41;;;-142.34;25.58
12951;BME280;6540;50.858;7.232;2023-02-28T06:29:09;51971.53;;;-142.34;25.80
12951;BME280;6540;50.858;7.232;2023-02-28T06:31:35;51927.16;;;-142.34;25.68
12951;BME280;6540;50.858;7.232;2023-02-28T06:34:00;51975.59;;;-142.34;26.15
12951;BME280;6540;50.858;7.232;2023-02-28T06:36:25;51971.53;;;-142.34;26.20
12951;BME280;6540;50.858;7.232;2023-02-28T06:38:51;51955.41;;;-142.34;25.52
12951;BME280;6540;50.858;7.232;2023-02-28T06:41:20;51927.16;;;-142.34;25.74
12951;BME280;6540;50.858;7.232;2023-02-28T06:43:45;51971.53;;;-142.34;26.12
12951;BME280;6540;50.858;7.232;2023-02-28T06:46:13;51937.25;;;-142.34;26.67
12951;BME280;6540;50.858;7.232;2023-02-28T06:48:39;51935.25;;;-142.34;26.05
12951;BME280;6540;50.858;7.232;2023-02-28T06:51:10;51894.88;;;-142.34;26.74
12951;BME280;6540;50.858;7.232;2023-02-28T06:53:36;51951.38;;;-142.34;27.07
12951;BME280;6540;50.858;7.232;2023-02-28T06:56:09;51941.28;;;-142.34;26.22
12951;BME280;6540;50.858;7.232;2023-02-28T06:58:36;51939.28;;;-142.34;26.16
12951;BME280;6540;50.858;7.232;2023-02-28T07:01:03;51935.25;;;-142.34;26.29
12951;BME280;6540;50.858;7.232;2023-02-28T07:03:29;51947.34;;;-142.34;26.57
12951;BME280;6540;50.858;7.232;2023-02-28T07:05:55;51935.25;;;-142.34;26.88
12951;BME280;6540;50.858;7.232;2023-02-28T07:08:25;51937.25;;;-142.34;26.94
12951;BME280;6540;50.858;7.232;2023-02-28T07:10:53;51955.41;;;-142.34;27.05
12951;BME280;6540;50.858;7.232;2023-02-28T07:13:18;51919.09;;;-142.34;26.76
12951;BME280;6540;50.858;7.232;2023-02-28T07:15:44;51959.44;;;-142.34;26.76
12951;BME280;6540;50.858;7.232;2023-02-28T07:18:09;51929.19;;;-142.34;27.30
12951;BME280;6540;50.858;7.232;2023-02-28T07:20:35;51939.28;;;-142.34;26.39
12951;BME280;6540;50.858;7.232;2023-02-28T07:23:00;51931.19;;;-142.34;26.80
12951;BME280;6540;50.858;7.232;2023-02-28T07:25:26;51925.16;;;-142.34;26.17
12951;BME280;6540;50.858;7.232;2023-02-28T07:27:53;51947.34;;;-142.34;26.35
12951;BME280;6540;50.858;7.232;2023-02-28T07:30:19;51917.06;;;-142.34;25.92
12951;BME280;6540;50.858;7.232;2023-02-28T07:32:44;51983.66;;;-142.34;25.92
12951;BME280;6540;50.858;7.232;2023-02-28T07:35:09;51949.34;;;-142.34;26.05
12951;BME280;6540;50.858;7.232;2023-02-28T07:37:35;51975.59;;;-142.34;25.69
12951;BME280;6540;50.858;7.232;2023-02-28T07:40:05;51965.50;;;-142.34;26.36
12951;BME280;6540;50.858;7.232;2023-02-28T07:42:37;51927.16;;;-142.34;26.73
12951;BME280;6540;50.858;7.232;2023-02-28T07:45:03;51947.34;;;-142.34;25.96
12951;BME280;6540;50.858;7.232;2023-02-28T07:47:29;51961.47;;;-142.34;25.73
12951;BME280;6540;50.858;7.232;2023-02-28T07:49:55;51983.66;;;-142.34;25.75
12951;BME280;6540;50.858;7.232;2023-02-28T07:52:21;51943.31;;;-142.34;26.34
12951;BME280;6540;50.858;7.232;2023-02-28T07:54:48;51947.34;;;-142.34;25.80
12951;BME280;6540;50.858;7.232;2023-02-28T07:57:14;51979.63;;;-142.34;25.56
12951;BME280;6540;50.858;7.232;2023-02-28T07:59:39;51947.34;;;-142.34;25.78
12951;BME280;6540;50.858;7.232;2023-02-28T08:02:04;51949.34;;;-142.34;25.54
12951;BME280;6540;50.858;7.232;2023-02-28T08:04:32;51959.44;;;-142.34;25.86
12951;BME280;6540;50.858;7.232;2023-02-28T08:06:57;51927.16;;;-142.34;25.46
12951;BME280;6540;50.858;7.232;2023-02-28T08:09:22;51963.47;;;-142.34;25.25
12951;BME280;6540;50.858;7.232;2023-02-28T08:11:48;51983.66;;;-142.34;25.29
12951;BME280;6540;50.858;7.232;2023-02-28T08:14:13;51959.44;;;-142.34;25.71
12951;BME280;6540;50.858;7.232;2023-02-28T08:16:38;51963.47;;;-142.34;25.12
12951;BME280;6540;50.858;7.232;2023-02-28T08:19:04;51983.66;;;-142.34;25.19
12951;BME280;6540;50.858;7.232;2023-02-28T08:21:29;51953.41;;;-142.34;25.55
12951;BME280;6540;50.858;7.232;2023-02-28T08:23:55;51959.44;;;-142.34;25.49
12951;BME280;6540;50.858;7.232;2023-02-28T08:26:22;51955.41;;;-142.34;25.15
12951;BME280;6540;50.858;7.232;2023-02-28T08:28:47;51971.53;;;-142.34;25.47
12951;BME280;6540;50.858;7.232;2023-02-28T08:31:15;51969.53;;;-142.34;24.96
12951;BME280;6540;50.858;7.232;2023-02-28T08:33:41;51923.13;;;-142.34;25.58
12951;BME280;6540;50.858;7.232;2023-02-28T08:36:08;51997.78;;;-142.34;25.34
12951;BME280;6540;50.858;7.232;2023-02-28T08:38:35;51935.25;;;-142.34;25.62
12951;BME280;6540;50.858;7.232;2023-02-28T08:41:03;51919.09;;;-142.34;26.02
12951;BME280;6540;50.858;7.232;2023-02-28T08:43:30;51931.19;;;-142.34;25.56
12951;BME280;6540;50.858;7.232;2023-02-28T08:45:56;51963.47;;;-142.34;24.24
12951;BME280;6540;50.858;7.232;2023-02-28T08:48:23;51919.09;;;-142.34;24.97
12951;BME280;6540;50.858;7.232;2023-02-28T08:51:15;51959.44;;;-142.34;24.69
12951;BME280;6540;50.858;7.232;2023-02-28T08:53:47;51931.19;;;-142.34;24.81
12951;BME280;6540;50.858;7.232;2023-02-28T08:56:15;51961.47;;;-142.34;23.83
12951;BME280;6540;50.858;7.232;2023-02-28T08:58:46;51915.06;;;-142.34;25.08
12951;BME280;6540;50.858;7.232;2023-02-28T09:01:14;51911.03;;;-142.34;24.46
12951;BME280;6540;50.858;7.232;2023-02-28T09:03:40;51931.19;;;-142.34;25.74
12951;BME280;6540;50.858;7.232;2023-02-28T09:06:11;51953.41;;;-142.34;24.74
12951;BME280;6540;50.858;7.232;2023-02-28T09:08:37;51941.28;;;-142.34;24.42
12951;BME280;6540;50.858;7.232;2023-02-28T09:11:03;51963.47;;;-142.34;24.85
12951;BME280;6540;50.858;7.232;2023-02-28T09:13:29;51909.00;;;-142.34;23.82
12951;BME280;6540;50.858;7.232;2023-02-28T09:15:58;51943.31;;;-142.34;24.98
12951;BME280;6540;50.858;7.232;2023-02-28T09:18:24;51963.47;;;-142.34;24.37
12951;BME280;6540;50.858;7.232;2023-02-28T09:20:49;51957.44;;;-142.34;25.57
12951;BME280;6540;50.858;7.232;2023-02-28T09:23:15;51939.28;;;-142.34;24.60
12951;BME280;6540;50.858;7.232;2023-02-28T09:25:52;51943.31;;;-142.34;23.76
12951;BME280;6540;50.858;7.232;2023-02-28T09:28:18;51945.31;;;-142.34;23.75
12951;BME280;6540;50.858;7.232;2023-02-28T09:30:46;51939.28;;;-142.34;23.77
12951;BME280;6540;50.858;7.232;2023-02-28T09:33:12;51955.41;;;-142.34;23.66
12951;BME280;6540;50.858;7.232;2023-02-28T09:35:38;51963.47;;;-142.34;24.31
12951;BME280;6540;50.858;7.232;2023-02-28T09:38:04;51931.19;;;-142.34;24.66
12951;BME280;6540;50.858;7.232;2023-02-28T09:40:30;51935.25;;;-142.34;24.34
12951;BME280;6540;50.858;7.232;2023-02-28T09:42:57;51913.03;;;-142.34;24.86
12951;BME280;6540;50.858;7.232;2023-02-28T09:45:36;51919.09;;;-142.34;24.62
12951;BME280;6540;50.858;7.232;2023-02-28T09:48:13;51927.16;;;-142.34;24.50
12951;BME280;6540;50.858;7.232;2023-02-28T09:50:45;51979.63;;;-142.34;23.38
12951;BME280;6540;50.858;7.232;2023-02-28T09:53:26;51977.59;;;-142.34;24.01
12951;BME280;6540;50.858;7.232;2023-02-28T09:55:55;51935.25;;;-142.34;24.11
12951;BME280;6540;50.858;7.232;2023-02-28T09:58:30;51947.34;;;-142.34;25.07
12951;BME280;6540;50.858;7.232;2023-02-28T10:01:08;51923.13;;;-142.34;23.21
12951;BME280;6540;50.858;7.232;2023-02-28T10:03:41;51943.31;;;-142.34;23.87
12951;BME280;6540;50.858;7.232;2023-02-28T10:06:21;51933.22;;;-142.34;24.25
12951;BME280;6540;50.858;7.232;2023-02-28T10:11:23;51971.53;;;-142.34;23.58
12951;BME280;6540;50.858;7.232;2023-02-28T10:14:12;51965.50;;;-142.34;22.96
12951;BME280;6540;50.858;7.232;2023-02-28T10:21:49;51951.38;;;-142.34;23.01
12951;BME280;6540;50.858;7.232;2023-02-28T10:27:00;51939.28;;;-142.34;22.61
12951;BME280;6540;50.858;7.232;2023-02-28T10:29:28;51951.38;;;-142.34;23.45
12951;BME280;6540;50.858;7.232;2023-02-28T10:31:54;51947.34;;;-142.34;22.53
12951;BME280;6540;50.858;7.232;2023-02-28T10:34:21;51951.38;;;-142.34;22.40
12951;BME280;6540;50.858;7.232;2023-02-28T10:36:47;51961.47;;;-142.34;21.69
12951;BME280;6540;50.858;7.232;2023-02-28T10:39:37;51945.31;;;-142.34;21.92
12951;BME280;6540;50.858;7.232;2023-02-28T10:42:03;51941.28;;;-142.34;23.32
12951;BME280;6540;50.858;7.232;2023-02-28T10:44:28;51973.56;;;-142.34;23.02
12951;BME280;6540;50.858;7.232;2023-02-28T10:46:53;51937.25;;;-142.34;23.72
12951;BME280;6540;50.858;7.232;2023-02-28T10:49:24;51939.28;;;-142.34;22.84
12951;BME280;6540;50.858;7.232;2023-02-28T10:51:54;51967.50;;;-142.34;23.46
12951;BME280;6540;50.858;7.232;2023-02-28T10:57:19;51951.38;;;-142.34;22.45
12951;BME280;6540;50.858;7.232;2023-02-28T10:59:44;51991.72;;;-142.34;23.75
12951;BME280;6540;50.858;7.232;2023-02-28T11:04:54;51955.41;;;-142.34;22.92
12951;BME280;6540;50.858;7.232;2023-02-28T11:07:22;51931.19;;;-142.34;23.59
12951;BME280;6540;50.858;7.232;2023-02-28T11:09:50;51963.47;;;-142.34;21.91
12951;BME280;6540;50.858;7.232;2023-02-28T11:15:02;51965.50;;;-142.34;23.43
12951;BME280;6540;50.858;7.232;2023-02-28T11:17:31;51931.19;;;-142.34;23.52
12951;BME280;6540;50.858;7.232;2023-02-28T11:20:02;51975.59;;;-142.34;21.72
12951;BME280;6540;50.858;7.232;2023-02-28T11:22:31;51963.47;;;-142.34;23.53
12951;BME280;6540;50.858;7.232;2023-02-28T11:25:02;51898.94;;;-142.34;23.45
12951;BME280;6540;50.858;7.232;2023-02-28T11:29:58;51959.44;;;-142.34;22.23
12951;BME280;6540;50.858;7.232;2023-02-28T11:32:29;51939.28;;;-142.34;22.81
12951;BME280;6540;50.858;7.232;2023-02-28T11:37:35;51915.06;;;-142.34;22.96
12951;BME280;6540;50.858;7.232;2023-02-28T11:40:01;51945.31;;;-142.34;23.92
12951;BME280;6540;50.858;7.232;2023-02-28T11:46:01;51947.34;;;-142.34;23.54
12951;BME280;6540;50.858;7.232;2023-02-28T11:48:37;51902.97;;;-142.34;23.63
12951;BME280;6540;50.858;7.232;2023-02-28T11:51:15;51955.41;;;-142.34;23.50
12951;BME280;6540;50.858;7.232;2023-02-28T11:56:44;51973.56;;;-142.34;22.11
12951;BME280;6540;50.858;7.232;2023-02-28T12:02:33;51939.28;;;-142.34;22.06
12951;BME280;6540;50.858;7.232;2023-02-28T12:05:16;51953.41;;;-142.34;23.49
12951;BME280;6540;50.858;7.232;2023-02-28T12:08:06;51900.94;;;-142.34;24.08
12951;BME280;6540;50.858;7.232;2023-02-28T12:10:58;51959.44;;;-142.34;22.83
12951;BME280;6540;50.858;7.232;2023-02-28T12:13:42;51923.13;;;-142.34;23.26
12951;BME280;6540;50.858;7.232;2023-02-28T12:18:49;51939.28;;;-142.34;23.92
12951;BME280;6540;50.858;7.232;2023-02-28T12:26:45;51915.06;;;-142.34;23.49
12951;BME280;6540;50.858;7.232;2023-02-28T12:31:45;51941.28;;;-142.34;23.23
12951;BME280;6540;50.858;7.232;2023-02-28T12:34:17;51959.44;;;-142.34;24.13
12951;BME280;6540;50.858;7.232;2023-02-28T12:36:45;51923.13;;;-142.34;24.23
12951;BME280;6540;50.858;7.232;2023-02-28T12:39:34;51925.16;;;-142.34;23.09
12951;BME280;6540;50.858;7.232;2023-02-28T12:42:09;51915.06;;;-142.34;22.67
12951;BME280;6540;50.858;7.232;2023-02-28T12:44:42;51937.25;;;-142.34;23.16
12951;BME280;6540;50.858;7.232;2023-02-28T12:47:14;51917.06;;;-142.34;23.88
12951;BME280;6540;50.858;7.232;2023-02-28T12:49:51;51913.03;;;-142.34;23.26
12951;BME280;6540;50.858;7.232;2023-02-28T12:52:23;51939.28;;;-142.34;23.29
12951;BME280;6540;50.858;7.232;2023-02-28T12:57:38;51955.41;;;-142.34;23.54
12951;BME280;6540;50.858;7.232;2023-02-28T13:00:12;51939.28;;;-142.34;22.20
12951;BME280;6540;50.858;7.232;2023-02-28T13:02:44;51927.16;;;-142.34;23.18
12951;BME280;6540;50.858;7.232;2023-02-28T13:05:31;51957.44;;;-142.34;24.31
12951;BME280;6540;50.858;7.232;2023-02-28T13:10:50;51917.06;;;-142.34;23.48
12951;BME280;6540;50.858;7.232;2023-02-28T13:13:27;51915.06;;;-142.34;22.41
12951;BME280;6540;50.858;7.232;2023-02-28T13:16:08;51935.25;;;-142.34;22.63
12951;BME280;6540;50.858;7.232;2023-02-28T13:18:39;51937.25;;;-142.34;22.47
12951;BME280;6540;50.858;7.232;2023-02-28T13:21:43;51959.44;;;-142.34;22.67
12951;BME280;6540;50.858;7.232;2023-02-28T13:24:09;51941.28;;;-142.34;23.04
12951;BME280;6540;50.858;7.232;2023-02-28T13:29:47;51965.50;;;-142.34;22.74
12951;BME280;6540;50.858;7.232;2023-02-28T13:39:54;51907.00;;;-142.34;22.64
12951;BME280;6540;50.858;7.232;2023-02-28T13:42:34;51925.16;;;-142.34;21.94
12951;BME280;6540;50.858;7.232;2023-02-28T13:47:39;51911.03;;;-142.34;22.97
12951;BME280;6540;50.858;7.232;2023-02-28T13:50:22;51939.28;;;-142.34;23.25
12951;BME280;6540;50.858;7.232;2023-02-28T14:06:26;51907.00;;;-142.34;22.57
12951;BME280;6540;50.858;7.232;2023-02-28T14:11:39;51919.09;;;-142.34;22.01
12951;BME280;6540;50.858;7.232;2023-02-28T14:14:07;51900.94;;;-142.34;22.64
12951;BME280;6540;50.858;7.232;2023-02-28T14:19:14;51927.16;;;-142.34;22.90
12951;BME280;6540;50.858;7.232;2023-02-28T14:27:40;51909.00;;;-142.34;23.08
12951;BME280;6540;50.858;7.232;2023-02-28T14:33:08;51937.25;;;-142.34;24.11
12951;BME280;6540;50.858;7.232;2023-02-28T14:38:26;51919.09;;;-142.34;23.93
12951;BME280;6540;50.858;7.232;2023-02-28T14:40:55;51927.16;;;-142.34;22.85
12951;BME280;6540;50.858;7.232;2023-02-28T14:43:27;51963.47;;;-142.34;22.45
12951;BME280;6540;50.858;7.232;2023-02-28T14:45:59;51939.28;;;-142.34;21.57
12951;BME280;6540;50.858;7.232;2023-02-28T14:48:26;51939.28;;;-142.34;22.87
12951;BME280;6540;50.858;7.232;2023-02-28T14:50:55;51898.94;;;-142.34;23.14
12951;BME280;6540;50.858;7.232;2023-02-28T14:53:25;51907.00;;;-142.34;22.59
12951;BME280;6540;50.858;7.232;2023-02-28T14:55:51;51919.09;;;-142.34;23.25
12951;BME280;6540;50.858;7.232;2023-02-28T14:58:27;51923.13;;;-142.34;22.01
12951;BME280;6540;50.858;7.232;2023-02-28T15:00:55;51933.22;;;-142.34;22.12
12951;BME280;6540;50.858;7.232;2023-02-28T15:03:32;51927.16;;;-142.34;21.17
12951;BME280;6540;50.858;7.232;2023-02-28T15:06:32;51923.13;;;-142.34;22.53